Time;durP1;ratioP1;P1;durP2;ratioP2;P2;SDS_P1;SDS_P2;PMS_P1;PMS_P2;Temp;Humidity;BMP_temperature;BMP_pressure;BME280_temperature;BME280_humidity;BME280_pressure;Samples;Min_cycle;Max_cycle;Signal;HPM_P1;HPM_P2
2021/06/11 05:03:57;;;;;;;13.48;9.75;;;;;;;17.93;76.36;100131.81;5148882;27;20331;-71
2021/06/11 05:06:22;;;;;;;14.98;8.93;;;;;;;18.09;75.28;100128.53;5146110;27;20031;-71
2021/06/11 05:08:48;;;;;;;12.85;8.65;;;;;;;18.24;75.04;100125.50;5130108;27;20440;-72
2021/06/11 05:11:13;;;;;;;13.32;9.60;;;;;;;18.47;75.33;100134.84;5131970;27;20521;-74
2021/06/11 05:13:39;;;;;;;14.82;8.98;;;;;;;18.70;75.15;100134.16;5131323;27;20028;-72
2021/06/11 05:16:04;;;;;;;10.75;9.65;;;;;;;18.90;74.09;100142.06;5132816;27;20024;-72
2021/06/11 05:18:30;;;;;;;13.07;9.50;;;;;;;19.01;73.21;100139.63;5131244;27;20026;-74
2021/06/11 05:20:55;;;;;;;13.52;9.00;;;;;;;19.08;73.24;100143.06;5132602;27;20050;-71
2021/06/11 05:23:21;;;;;;;13.15;9.00;;;;;;;19.20;73.22;100140.41;5131913;27;26049;-71
2021/06/11 05:25:47;;;;;;;13.20;9.00;;;;;;;19.27;72.63;100135.75;5131248;27;20161;-71
2021/06/11 05:28:13;;;;;;;11.73;7.97;;;;;;;19.40;72.53;100134.75;5132300;27;20023;-70
2021/06/11 05:30:38;;;;;;;17.25;9.43;;;;;;;19.51;72.09;100135.84;5130679;27;20032;-69
2021/06/11 05:33:04;;;;;;;12.00;8.93;;;;;;;19.66;71.94;100140.81;5129735;27;33342;-71
2021/06/11 05:35:30;;;;;;;16.15;9.00;;;;;;;19.77;71.67;100143.53;5132384;27;20020;-73
2021/06/11 05:37:58;;;;;;;12.90;9.57;;;;;;;19.86;71.06;100141.34;5132304;27;20095;-73
2021/06/11 05:40:23;;;;;;;13.15;8.45;;;;;;;19.95;70.72;100134.53;5131288;27;20766;-72
2021/06/11 05:42:49;;;;;;;11.05;8.90;;;;;;;20.04;70.16;100136.88;5152161;27;35748;-73
2021/06/11 05:45:15;;;;;;;14.15;9.20;;;;;;;20.10;69.70;100138.66;5150523;27;20106;-72
2021/06/11 05:47:40;;;;;;;10.20;8.48;;;;;;;20.15;69.49;100144.19;5131303;27;20040;-71
2021/06/11 05:50:06;;;;;;;11.32;8.65;;;;;;;20.25;69.39;100138.19;5145159;27;36310;-70
2021/06/11 05:52:31;;;;;;;13.82;9.05;;;;;;;20.36;69.09;100139.25;5150986;27;20023;-71
2021/06/11 05:54:57;;;;;;;14.05;8.68;;;;;;;20.42;68.64;100139.13;5133874;27;20039;-70
2021/06/11 05:57:22;;;;;;;14.48;8.48;;;;;;;20.48;67.94;100141.97;5150258;27;30287;-70
2021/06/11 05:59:48;;;;;;;12.18;8.48;;;;;;;20.55;68.10;100138.03;5150275;27;35849;-67
2021/06/11 06:02:13;;;;;;;11.00;8.48;;;;;;;20.73;68.34;100134.38;5151761;27;20054;-69
2021/06/11 06:04:38;;;;;;;13.35;8.70;;;;;;;20.90;67.55;100129.06;5150054;27;30910;-73
2021/06/11 06:07:04;;;;;;;10.23;8.50;;;;;;;20.94;66.52;100130.22;5148007;27;20086;-70
2021/06/11 06:09:29;;;;;;;10.40;7.70;;;;;;;20.99;65.91;100126.78;5131354;27;29461;-72
2021/06/11 06:11:54;;;;;;;10.25;8.00;;;;;;;21.03;66.12;100129.84;5123831;27;38462;-70
2021/06/11 06:14:20;;;;;;;14.55;9.07;;;;;;;21.09;65.91;100131.56;5111475;27;34684;-70
2021/06/11 06:16:45;;;;;;;11.98;8.77;;;;;;;21.17;65.61;100131.19;5107310;28;35720;-71
2021/06/11 06:19:11;;;;;;;11.43;8.15;;;;;;;21.30;65.07;100128.19;5104425;28;20388;-71
2021/06/11 06:21:36;;;;;;;13.60;8.95;;;;;;;21.34;64.21;100133.94;5106264;28;20032;-71
2021/06/11 06:24:01;;;;;;;13.13;8.10;;;;;;;21.37;64.17;100138.88;5104751;27;36047;-69
2021/06/11 06:26:27;;;;;;;12.90;8.63;;;;;;;21.30;63.32;100141.72;5116325;28;36267;-70
2021/06/11 06:28:53;;;;;;;14.52;8.75;;;;;;;21.28;63.46;100141.16;5116229;28;20111;-68
2021/06/11 06:31:18;;;;;;;10.13;8.00;;;;;;;21.33;63.14;100137.72;5117088;27;20035;-69
2021/06/11 06:33:44;;;;;;;12.60;8.60;;;;;;;21.46;63.65;100150.16;5117662;28;20024;-70
2021/06/11 06:36:10;;;;;;;10.13;8.93;;;;;;;21.59;62.82;100149.88;5116641;27;40317;-69
2021/06/11 06:38:36;;;;;;;13.68;8.70;;;;;;;21.74;63.04;100148.50;5115629;28;20039;-67
2021/06/11 06:41:01;;;;;;;9.15;7.68;;;;;;;21.96;63.52;100152.09;5117562;27;20032;-68
2021/06/11 06:43:30;;;;;;;12.65;8.07;;;;;;;22.26;63.24;100148.22;5116692;27;24451;-69
2021/06/11 06:45:56;;;;;;;12.02;8.43;;;;;;;22.47;62.09;100141.22;5116988;27;20032;-68
2021/06/11 06:48:21;;;;;;;11.95;8.15;;;;;;;22.57;61.80;100142.44;5117267;27;20488;-69
2021/06/11 06:50:47;;;;;;;11.82;7.75;;;;;;;22.78;62.03;100147.03;5116112;28;20025;-70
2021/06/11 06:53:12;;;;;;;11.93;7.25;;;;;;;23.10;62.27;100145.50;5116879;27;20032;-69
2021/06/11 06:55:38;;;;;;;10.07;7.45;;;;;;;23.36;61.45;100141.22;5117258;27;20024;-68
2021/06/11 06:58:04;;;;;;;10.52;6.85;;;;;;;23.56;61.02;100151.44;5116522;27;20055;-68
2021/06/11 07:00:29;;;;;;;8.02;7.05;;;;;;;23.63;59.65;100141.19;5117223;27;20342;-69
2021/06/11 07:02:55;;;;;;;9.13;7.63;;;;;;;23.74;59.56;100144.84;5115405;27;34884;-68
2021/06/11 07:05:20;;;;;;;12.02;7.30;;;;;;;23.92;59.01;100148.25;5115188;28;20150;-70
2021/06/11 07:07:45;;;;;;;9.48;7.22;;;;;;;24.15;59.41;100141.63;5116178;27;20079;-70
2021/06/11 07:10:11;;;;;;;9.93;7.18;;;;;;;24.30;57.00;100139.00;5115827;27;30793;-69
2021/06/11 07:12:36;;;;;;;9.65;7.60;;;;;;;24.32;57.37;100136.03;5115444;28;20028;-70
2021/06/11 07:15:04;;;;;;;10.35;6.65;;;;;;;24.46;57.73;100142.63;5114768;28;20028;-68
2021/06/11 07:17:29;;;;;;;6.65;5.97;;;;;;;24.69;57.75;100145.19;5098250;28;20085;-68
2021/06/11 07:19:54;;;;;;;10.27;5.88;;;;;;;24.96;57.46;100154.06;5114386;28;42744;-68
2021/06/11 07:22:20;;;;;;;8.18;6.10;;;;;;;25.22;56.91;100153.28;5115504;27;27176;-69
2021/06/11 07:24:45;;;;;;;14.35;6.10;;;;;;;25.48;56.66;100157.75;5116208;27;20088;-67
2021/06/11 07:27:11;;;;;;;9.77;5.43;;;;;;;25.64;55.71;100144.94;5115536;27;20155;-70
2021/06/11 07:29:43;;;;;;;8.15;6.20;;;;;;;25.73;54.97;100153.41;5116142;27;24338;-70
2021/06/11 07:32:08;;;;;;;7.78;6.10;;;;;;;25.84;53.76;100146.03;5116601;27;20025;-70
2021/06/11 07:34:34;;;;;;;7.50;5.90;;;;;;;25.65;52.03;100151.22;5116544;27;20443;-68
2021/06/11 07:36:59;;;;;;;8.13;5.60;;;;;;;25.40;51.50;100147.38;5115734;27;20066;-69
2021/06/11 07:39:24;;;;;;;7.00;5.57;;;;;;;25.40;52.23;100152.03;5115695;27;20388;-71
2021/06/11 07:41:54;;;;;;;12.73;5.60;;;;;;;25.60;52.94;100156.66;5114229;27;30928;-66
2021/06/11 07:44:19;;;;;;;6.50;5.82;;;;;;;25.80;52.06;100151.22;5115392;27;20033;-69
2021/06/11 07:46:45;;;;;;;6.93;5.22;;;;;;;25.89;51.21;100151.50;5115694;27;20130;-68
2021/06/11 07:49:10;;;;;;;8.57;6.18;;;;;;;25.84;50.35;100144.13;5114785;27;38692;-69
2021/06/11 07:51:35;;;;;;;7.50;5.13;;;;;;;25.97;51.34;100145.50;5115765;27;20028;-69
2021/06/11 07:54:01;;;;;;;10.52;5.43;;;;;;;26.30;50.85;100140.56;5115174;27;30024;-69
2021/06/11 07:56:26;;;;;;;10.13;5.90;;;;;;;26.55;50.53;100143.50;5115973;27;20044;-71
2021/06/11 07:58:51;;;;;;;10.00;5.55;;;;;;;26.66;49.44;100147.81;5115911;27;20051;-70
2021/06/11 08:01:17;;;;;;;6.57;5.53;;;;;;;26.72;48.09;100146.72;5101261;27;31352;-69
2021/06/11 08:03:42;;;;;;;6.70;5.15;;;;;;;26.74;48.58;100143.72;5094007;28;20044;-70
2021/06/11 08:06:08;;;;;;;7.20;4.95;;;;;;;26.82;47.97;100145.88;5092920;28;40791;-72
2021/06/11 08:08:33;;;;;;;7.22;4.60;;;;;;;26.96;47.59;100144.16;5104390;28;28569;-71
2021/06/11 08:10:58;;;;;;;7.90;5.03;;;;;;;27.11;47.43;100156.13;5111809;28;35910;-69
2021/06/11 08:13:24;;;;;;;9.05;5.13;;;;;;;27.27;46.90;100152.19;5115211;27;31662;-73
2021/06/11 08:15:49;;;;;;;6.88;4.95;;;;;;;27.36;45.75;100158.72;5114610;28;20028;-68
2021/06/11 08:18:14;;;;;;;6.18;5.25;;;;;;;27.59;46.55;100159.13;5097122;28;21777;-65
2021/06/11 08:20:40;;;;;;;6.88;5.53;;;;;;;27.96;45.44;100156.91;5114411;28;20035;-67
2021/06/11 08:23:05;;;;;;;6.90;5.65;;;;;;;28.24;45.96;100157.22;5115779;27;20031;-68
2021/06/11 08:25:32;;;;;;;11.27;5.90;;;;;;;28.66;45.97;100152.94;5115236;27;20107;-67
2021/06/11 08:27:58;;;;;;;9.10;5.88;;;;;;;29.06;45.38;100155.47;5115529;27;20028;-65
2021/06/11 08:30:24;;;;;;;8.70;5.50;;;;;;;29.14;42.61;100141.91;5115865;27;20077;-67
2021/06/11 08:32:50;;;;;;;6.85;5.40;;;;;;;28.93;41.30;100146.03;5115629;27;20032;-70
2021/06/11 08:35:15;;;;;;;7.53;5.90;;;;;;;28.83;41.95;100144.25;5113782;28;20526;-68
2021/06/11 08:37:41;;;;;;;6.97;5.20;;;;;;;28.75;41.82;100140.22;5114100;27;37961;-70
2021/06/11 08:40:07;;;;;;;7.82;5.95;;;;;;;28.66;41.08;100131.81;5115057;27;20092;-69
2021/06/11 08:42:32;;;;;;;8.45;5.93;;;;;;;28.78;41.75;100138.84;5115181;27;20039;-68
2021/06/11 08:44:59;;;;;;;9.20;5.53;;;;;;;28.90;40.88;100138.38;5113860;28;20036;-70
2021/06/11 08:47:25;;;;;;;7.60;4.97;;;;;;;29.15;41.79;100142.72;5113779;28;20036;-70
2021/06/11 08:49:51;;;;;;;5.70;5.10;;;;;;;29.50;41.20;100146.09;5115164;27;20829;-68
2021/06/11 08:52:16;;;;;;;8.50;4.57;;;;;;;29.92;40.54;100140.75;5114385;27;36697;-70
2021/06/11 08:54:42;;;;;;;5.15;3.88;;;;;;;30.39;41.13;100136.03;5092027;28;20035;-71
2021/06/11 08:57:11;;;;;;;6.22;3.67;;;;;;;31.22;41.14;100146.16;5112963;28;20101;-67
2021/06/11 08:59:37;;;;;;;5.15;3.80;;;;;;;31.78;39.28;100145.97;5114892;27;20099;-68
2021/06/11 09:02:02;;;;;;;6.30;3.55;;;;;;;31.96;38.27;100144.13;5111414;27;20500;-71
2021/06/11 09:04:45;;;;;;;4.97;3.42;;;;;;;31.84;36.40;100144.72;5084464;28;20057;-71
2021/06/11 09:07:32;;;;;;;5.25;3.47;;;;;;;31.68;36.50;100145.06;5093351;28;20055;-69
2021/06/11 09:10:07;;;;;;;8.63;3.80;;;;;;;31.78;36.30;100145.97;5093463;28;20028;-68
2021/06/11 09:12:36;;;;;;;7.38;3.67;;;;;;;31.69;35.21;100143.97;5092507;28;20077;-68
2021/06/11 09:15:06;;;;;;;5.03;3.42;;;;;;;31.96;35.94;100146.88;5092694;28;20038;-68
2021/06/11 09:17:45;;;;;;;6.68;3.22;;;;;;;32.33;35.61;100139.31;5093953;28;20082;-70
2021/06/11 09:20:21;;;;;;;7.05;3.50;;;;;;;32.58;34.60;100137.78;5092641;28;20469;-68
2021/06/11 09:22:54;;;;;;;6.25;3.30;;;;;;;32.90;34.32;100138.50;5092154;28;20025;-72
2021/06/11 09:25:39;;;;;;;4.40;3.65;;;;;;;33.16;33.41;100141.31;5091792;28;20098;-70
2021/06/11 09:28:09;;;;;;;7.43;3.53;;;;;;;33.26;33.00;100148.47;5090282;28;20025;-70
2021/06/11 09:30:37;;;;;;;5.93;3.33;;;;;;;33.45;32.43;100150.91;5092243;28;20044;-72
2021/06/11 09:33:04;;;;;;;5.60;3.33;;;;;;;33.50;31.55;100144.41;5091880;28;20060;-72
2021/06/11 09:35:39;;;;;;;7.45;3.42;;;;;;;33.44;31.40;100154.00;5092088;28;20040;-70
2021/06/11 09:38:07;;;;;;;5.38;2.85;;;;;;;33.26;29.59;100151.25;5092295;28;20082;-71
2021/06/11 09:40:32;;;;;;;4.45;3.03;;;;;;;32.71;29.31;100136.88;5094426;28;20044;-70
2021/06/11 09:43:01;;;;;;;7.22;3.15;;;;;;;32.63;30.24;100137.63;5092892;28;20028;-71
2021/06/11 09:45:26;;;;;;;4.70;3.08;;;;;;;32.75;30.91;100139.78;5093785;28;20393;-70
2021/06/11 09:47:52;;;;;;;6.90;2.90;;;;;;;33.34;31.02;100139.38;5093448;28;31862;-71
2021/06/11 09:50:37;;;;;;;5.05;2.95;;;;;;;33.67;29.73;100144.38;5096224;28;20633;-72
2021/06/11 09:53:12;;;;;;;5.47;2.50;;;;;;;33.89;28.81;100139.81;5097304;28;20040;-71
2021/06/11 09:55:40;;;;;;;7.75;2.83;;;;;;;34.01;28.67;100144.66;5097592;28;20031;-72
2021/06/11 09:58:06;;;;;;;5.65;2.42;;;;;;;34.02;28.02;100141.59;5097336;28;20856;-72
2021/06/11 10:00:33;;;;;;;5.07;2.58;;;;;;;33.98;27.43;100140.63;5097469;28;20037;-72
2021/06/11 10:02:59;;;;;;;3.25;2.40;;;;;;;33.98;27.43;100139.78;5078645;28;20124;-71
2021/06/11 10:05:26;;;;;;;7.50;2.75;;;;;;;33.76;26.54;100133.31;5097330;28;20111;-73
2021/06/11 10:07:51;;;;;;;5.47;3.30;;;;;;;33.63;26.82;100134.31;5085230;28;20094;-72
2021/06/11 10:10:16;;;;;;;5.72;2.88;;;;;;;33.48;26.59;100135.66;5096088;28;20473;-69
2021/06/11 10:12:42;;;;;;;5.38;2.65;;;;;;;33.51;26.64;100121.19;5095326;28;34575;-69
2021/06/11 10:15:08;;;;;;;4.95;2.90;;;;;;;33.44;25.46;100118.91;5096910;28;26154;-72
2021/06/11 10:17:33;;;;;;;3.78;2.78;;;;;;;33.23;25.91;100121.47;5097173;28;20074;-67
2021/06/11 10:19:58;;;;;;;4.13;2.85;;;;;;;33.20;26.30;100122.13;5095235;28;30547;-72
2021/06/11 10:22:24;;;;;;;4.55;3.05;;;;;;;33.23;25.95;100114.03;5082929;28;27884;-72
2021/06/11 10:24:49;;;;;;;5.88;3.30;;;;;;;33.35;26.09;100110.66;5096823;28;32814;-70
2021/06/11 10:27:15;;;;;;;5.25;3.10;;;;;;;33.31;25.25;100109.69;5077955;28;40199;-72
2021/06/11 10:29:40;;;;;;;7.10;3.10;;;;;;;32.96;25.24;100101.38;5078180;28;33178;-70
2021/06/11 10:32:06;;;;;;;6.93;3.03;;;;;;;32.79;25.05;100107.66;5095554;28;20038;-69
2021/06/11 10:34:49;;;;;;;5.25;2.80;;;;;;;32.85;25.88;100095.34;5095353;28;20067;-70
2021/06/11 10:37:40;;;;;;;4.75;2.65;;;;;;;32.92;25.84;100099.56;5096740;28;20032;-70
2021/06/11 10:40:16;;;;;;;5.13;2.60;;;;;;;32.94;25.03;100097.31;5097043;28;20036;-70
2021/06/11 10:42:42;;;;;;;5.90;3.03;;;;;;;32.63;25.08;100088.00;5094896;28;20032;-72
2021/06/11 10:45:09;;;;;;;3.50;2.63;;;;;;;32.33;24.71;100093.25;5095373;28;20029;-71
2021/06/11 10:47:34;;;;;;;5.72;2.80;;;;;;;32.21;25.66;100082.03;5096399;28;20032;-71
2021/06/11 10:50:01;;;;;;;3.88;2.25;;;;;;;31.95;24.78;100096.47;5096466;28;20036;-74
2021/06/11 10:52:29;;;;;;;6.13;2.08;;;;;;;31.83;25.55;100099.00;5096517;28;20823;-70
2021/06/11 10:54:54;;;;;;;5.13;2.45;;;;;;;31.97;25.99;100088.69;5094923;28;20121;-72
2021/06/11 10:57:20;;;;;;;2.88;2.20;;;;;;;32.25;25.70;100087.72;5095521;28;32116;-74
2021/06/11 10:59:48;;;;;;;5.13;2.00;;;;;;;32.42;25.74;100098.78;5095412;28;20021;-72
2021/06/11 11:02:15;;;;;;;7.82;2.00;;;;;;;32.63;25.53;100098.19;5095907;28;20843;-72
2021/06/11 11:04:42;;;;;;;2.08;1.85;;;;;;;32.38;24.23;100086.78;5096320;28;20115;-73
2021/06/11 11:07:22;;;;;;;3.03;1.52;;;;;;;32.04;24.38;100100.09;5095108;28;20028;-72
2021/06/11 11:10:09;;;;;;;4.45;1.90;;;;;;;31.89;24.58;100111.50;5094844;28;20119;-68
2021/06/11 11:12:56;;;;;;;2.55;1.50;;;;;;;32.14;25.38;100106.47;5094648;28;20491;-75
2021/06/11 11:15:51;;;;;;;7.05;2.17;;;;;;;32.63;25.49;100103.72;5095769;28;20043;-72
2021/06/11 11:18:32;;;;;;;3.83;2.00;;;;;;;32.93;24.64;100096.50;5076960;28;20560;-72
2021/06/11 11:20:58;;;;;;;2.47;1.70;;;;;;;33.25;25.13;100091.66;5095681;28;20077;-73
2021/06/11 11:23:24;;;;;;;3.53;1.98;;;;;;;33.66;24.55;100089.47;5095612;28;20542;-70
2021/06/11 11:25:49;;;;;;;4.10;2.20;;;;;;;33.80;24.06;100097.59;5077596;28;20060;-69
2021/06/11 11:28:15;;;;;;;7.63;2.17;;;;;;;33.87;23.34;100084.06;5093223;28;42282;-68
2021/06/11 11:30:42;;;;;;;5.95;2.20;;;;;;;33.54;23.19;100087.38;5094057;28;20024;-69
2021/06/11 11:33:07;;;;;;;4.20;2.10;;;;;;;33.58;23.35;100091.13;5094083;28;20523;-69
2021/06/11 11:35:34;;;;;;;4.25;2.33;;;;;;;33.31;22.56;100084.00;5092933;28;20034;-68
2021/06/11 11:38:01;;;;;;;4.88;2.17;;;;;;;32.97;22.64;100086.44;5093294;28;20047;-68
2021/06/11 11:40:26;;;;;;;4.57;2.50;;;;;;;32.70;22.79;100093.88;5092875;28;20870;-69
2021/06/11 11:42:53;;;;;;;6.15;2.65;;;;;;;32.63;23.41;100088.00;5095305;28;20103;-68
2021/06/11 11:45:18;;;;;;;3.30;2.00;;;;;;;32.69;23.71;100085.88;5095666;28;20033;-70
2021/06/11 11:47:44;;;;;;;3.03;1.90;;;;;;;32.76;23.81;100088.22;5094283;28;20033;-69
2021/06/11 11:50:10;;;;;;;3.78;2.05;;;;;;;32.72;23.53;100085.25;5094373;28;20028;-71
2021/06/11 11:52:36;;;;;;;4.55;1.90;;;;;;;32.71;23.70;100087.22;5095269;28;20024;-69
2021/06/11 11:55:03;;;;;;;5.90;1.95;;;;;;;32.55;23.52;100072.25;5095644;28;20626;-69
2021/06/11 11:57:28;;;;;;;4.03;1.77;;;;;;;32.56;23.56;100074.69;5094500;28;20035;-69
2021/06/11 11:59:54;;;;;;;3.22;1.88;;;;;;;32.85;24.03;100080.75;5095617;28;20428;-69
2021/06/11 12:02:19;;;;;;;3.45;1.80;;;;;;;33.32;24.62;100071.84;5094156;28;37543;-69
2021/06/11 12:04:45;;;;;;;2.33;1.75;;;;;;;33.58;23.47;100072.59;5095469;28;20043;-69
2021/06/11 12:07:10;;;;;;;3.65;1.75;;;;;;;33.63;23.33;100068.84;5095066;28;24998;-70
2021/06/11 12:09:36;;;;;;;4.13;1.98;;;;;;;33.58;22.88;100066.25;5094867;28;30846;-70
2021/06/11 12:12:01;;;;;;;3.30;1.67;;;;;;;33.45;23.02;100070.03;5092717;28;34571;-68
2021/06/11 12:14:26;;;;;;;3.50;1.80;;;;;;;33.12;22.15;100060.31;5094645;28;32476;-68
2021/06/11 12:16:52;;;;;;;6.53;1.90;;;;;;;32.54;22.03;100059.59;5094650;28;37113;-67
2021/06/11 12:19:17;;;;;;;4.05;1.70;;;;;;;32.06;22.09;100064.75;5094700;28;33781;-67
2021/06/11 12:21:43;;;;;;;5.13;1.70;;;;;;;31.96;22.74;100058.72;5094694;28;38467;-70
2021/06/11 12:24:08;;;;;;;2.92;2.08;;;;;;;31.98;23.21;100057.28;5094804;28;32844;-69
2021/06/11 12:26:33;;;;;;;3.80;1.63;;;;;;;32.17;23.00;100064.53;5094132;28;35206;-69
2021/06/11 12:29:01;;;;;;;3.17;1.73;;;;;;;32.32;23.26;100061.31;5095119;28;20035;-75
2021/06/11 12:31:28;;;;;;;6.18;1.70;;;;;;;32.48;22.99;100058.94;5093874;28;20024;-72
2021/06/11 12:33:53;;;;;;;2.08;1.30;;;;;;;32.58;23.03;100051.50;5093847;28;20039;-72
2021/06/11 12:36:19;;;;;;;3.42;1.58;;;;;;;32.65;22.81;100060.88;5094245;28;20389;-72
2021/06/11 12:38:44;;;;;;;2.78;1.20;;;;;;;32.77;22.68;100060.28;5093307;28;31910;-70
2021/06/11 12:41:12;;;;;;;4.85;1.60;;;;;;;32.70;22.25;100055.25;5094863;28;20033;-70
2021/06/11 12:46:24;;;;;;;2.67;1.50;;;;;;;31.79;22.52;100059.47;5093161;28;20098;-73
2021/06/11 12:48:50;;;;;;;3.83;1.83;;;;;;;31.68;22.48;100050.66;5091709;28;20035;-72
2021/06/11 12:51:16;;;;;;;5.90;2.00;;;;;;;31.48;22.89;100058.31;5092605;28;23608;-73
2021/06/11 12:53:42;;;;;;;2.72;2.08;;;;;;;31.37;23.02;100056.91;5091888;28;20040;-71
2021/06/11 12:56:07;;;;;;;7.28;2.60;;;;;;;31.17;23.01;100058.25;5093116;28;20190;-69
2021/06/11 12:58:32;;;;;;;8.88;2.33;;;;;;;30.75;23.35;100063.03;5073705;28;33225;-69
2021/06/11 13:00:58;;;;;;;5.32;2.60;;;;;;;30.38;23.62;100062.97;5091247;28;37771;-76
2021/06/11 13:03:24;;;;;;;6.47;2.60;;;;;;;30.03;24.25;100071.63;5091578;28;20099;-74
2021/06/11 13:05:49;;;;;;;4.97;2.38;;;;;;;29.72;24.76;100071.34;5092651;28;32158;-74
2021/06/11 13:08:16;;;;;;;4.28;2.38;;;;;;;29.57;25.06;100071.56;5103339;28;35325;-70
2021/06/11 13:10:41;;;;;;;7.18;3.55;;;;;;;29.49;25.57;100071.16;5112452;27;20140;-74
2021/06/11 13:13:07;;;;;;;6.90;2.72;;;;;;;29.59;26.75;100064.69;5104568;27;20039;-71
2021/06/11 13:15:32;;;;;;;5.85;2.60;;;;;;;29.88;27.22;100063.63;5110868;28;20361;-68
2021/06/11 13:17:57;;;;;;;5.13;2.65;;;;;;;30.11;27.33;100070.06;5111080;27;38860;-68
2021/06/11 13:20:23;;;;;;;4.72;2.85;;;;;;;30.17;27.57;100068.06;5112475;27;20028;-71
2021/06/11 13:22:48;;;;;;;5.32;2.60;;;;;;;30.53;27.86;100070.91;5111143;27;32696;-69
2021/06/11 13:25:14;;;;;;;3.53;2.35;;;;;;;30.72;27.33;100072.72;5114712;27;20028;-73
2021/06/11 13:27:39;;;;;;;4.75;3.38;;;;;;;30.62;27.21;100068.25;5116400;27;20032;-71
2021/06/11 13:30:05;;;;;;;5.90;2.42;;;;;;;30.68;27.92;100064.25;5118310;27;20361;-73
2021/06/11 13:32:31;;;;;;;4.03;2.58;;;;;;;30.88;27.98;100063.00;5118238;27;20047;-72
2021/06/11 13:34:56;;;;;;;4.05;2.60;;;;;;;31.02;27.74;100071.22;5116204;28;37577;-74
2021/06/11 13:37:22;;;;;;;4.43;2.63;;;;;;;31.02;27.58;100068.47;5117908;27;20038;-71
2021/06/11 13:39:47;;;;;;;6.15;3.17;;;;;;;30.80;27.20;100079.44;5117994;27;20078;-72
2021/06/11 13:42:12;;;;;;;3.65;2.83;;;;;;;30.46;27.26;100067.75;5101632;27;29467;-72
2021/06/11 13:44:38;;;;;;;6.32;3.08;;;;;;;30.16;27.69;100061.75;5096116;28;39146;-69
2021/06/11 13:47:06;;;;;;;4.70;3.10;;;;;;;29.94;28.35;100069.88;5095013;28;36495;-71
2021/06/11 13:49:32;;;;;;;4.97;2.80;;;;;;;29.81;29.00;100068.69;5095812;28;20033;-70
2021/06/11 13:51:58;;;;;;;5.95;2.60;;;;;;;29.61;29.16;100067.13;5097048;28;20036;-72
2021/06/11 13:54:24;;;;;;;7.35;3.05;;;;;;;29.49;28.84;100067.63;5097375;28;20024;-71
2021/06/11 13:56:50;;;;;;;7.38;3.03;;;;;;;29.34;29.07;100072.22;5106312;28;28276;-70
2021/06/11 13:59:16;;;;;;;4.97;2.58;;;;;;;29.34;29.98;100069.47;5117221;27;20055;-70
2021/06/11 14:01:41;;;;;;;5.03;3.10;;;;;;;29.52;30.37;100061.50;5115980;28;20393;-69
2021/06/11 14:04:07;;;;;;;4.68;2.60;;;;;;;29.62;30.26;100057.78;5117855;27;20024;-70
2021/06/11 14:06:32;;;;;;;5.70;2.83;;;;;;;29.55;29.73;100055.41;5115354;28;36716;-73
2021/06/11 14:08:57;;;;;;;5.57;2.60;;;;;;;29.32;29.81;100052.53;5115458;28;31809;-72
2021/06/11 14:11:23;;;;;;;3.00;2.28;;;;;;;29.08;29.62;100049.03;5116274;27;30323;-71
2021/06/11 14:13:49;;;;;;;6.55;2.58;;;;;;;28.90;30.21;100047.91;5117360;27;20036;-72
2021/06/11 14:16:14;;;;;;;5.22;2.70;;;;;;;28.72;30.24;100046.81;5117591;27;20101;-73
2021/06/11 14:18:40;;;;;;;5.72;2.80;;;;;;;28.52;30.10;100037.72;5099286;28;20638;-74
2021/06/11 14:21:05;;;;;;;6.90;2.53;;;;;;;28.39;30.69;100044.75;5116998;27;20036;-77
2021/06/11 14:23:31;;;;;;;4.15;2.72;;;;;;;28.24;30.56;100037.53;5116386;28;20226;-73
2021/06/11 14:25:56;;;;;;;4.80;2.38;;;;;;;28.09;30.80;100045.91;5116155;28;20384;-73
2021/06/11 14:28:22;;;;;;;4.53;2.35;;;;;;;28.03;30.98;100042.44;5116565;27;20484;-75
2021/06/11 14:30:47;;;;;;;3.42;2.10;;;;;;;27.93;30.88;100043.31;5116889;27;35392;-77
2021/06/11 14:33:13;;;;;;;3.90;2.13;;;;;;;27.89;31.13;100047.75;5116016;28;20514;-76
2021/06/11 14:35:38;;;;;;;4.05;2.10;;;;;;;27.87;31.64;100033.53;5116608;27;20459;-76
2021/06/11 14:38:04;;;;;;;3.97;2.30;;;;;;;27.75;31.36;100030.38;5097097;28;20441;-76
2021/06/11 14:40:29;;;;;;;4.18;2.10;;;;;;;27.69;31.49;100041.38;5096675;28;20115;-70
2021/06/11 14:42:56;;;;;;;2.45;1.95;;;;;;;27.74;31.50;100036.97;5096594;28;20021;-72
2021/06/11 14:45:22;;;;;;;4.50;2.60;;;;;;;27.70;31.61;100037.53;5096231;28;20079;-74
2021/06/11 14:47:48;;;;;;;4.03;2.30;;;;;;;27.65;31.90;100031.28;5095484;28;27472;-73
2021/06/11 14:50:13;;;;;;;4.40;2.50;;;;;;;27.66;31.63;100038.41;5096650;28;20384;-73
2021/06/11 14:52:43;;;;;;;5.20;1.90;;;;;;;27.59;31.43;100037.94;5096469;28;20497;-72
2021/06/11 14:55:09;;;;;;;3.90;2.25;;;;;;;27.59;31.27;100038.72;5096510;28;20546;-72
2021/06/11 14:57:35;;;;;;;3.63;2.20;;;;;;;27.60;31.30;100026.69;5096257;28;20744;-74
2021/06/11 15:00:01;;;;;;;6.93;2.20;;;;;;;27.55;30.98;100029.47;5107911;28;20038;-73
2021/06/11 15:02:27;;;;;;;4.38;2.15;;;;;;;27.42;31.04;100016.47;5117122;27;20044;-74
2021/06/11 15:04:52;;;;;;;2.45;1.88;;;;;;;27.26;31.13;100023.97;5114859;28;32142;-77
2021/06/11 15:07:17;;;;;;;5.93;2.20;;;;;;;27.23;31.20;100019.88;5113711;28;20043;-77
2021/06/11 15:09:43;;;;;;;3.63;2.05;;;;;;;27.17;31.14;100023.75;5115286;28;20055;-72
2021/06/11 15:12:09;;;;;;;6.53;2.20;;;;;;;27.07;31.23;100021.09;5111097;28;20043;-74
2021/06/11 15:14:34;;;;;;;3.70;1.98;;;;;;;26.97;31.18;100011.88;5095991;28;20029;-76
2021/06/11 15:16:59;;;;;;;4.60;2.20;;;;;;;26.92;31.36;100014.63;5095229;28;37197;-74
2021/06/11 15:19:25;;;;;;;3.63;2.38;;;;;;;26.92;31.60;100011.09;5095047;28;38869;-79
2021/06/11 15:21:50;;;;;;;5.72;2.40;;;;;;;26.94;31.48;100003.41;5104491;28;20040;-74
2021/06/11 15:24:16;;;;;;;6.85;2.40;;;;;;;26.98;31.84;100004.47;5097150;28;20032;-76
2021/06/11 15:26:41;;;;;;;4.72;2.50;;;;;;;27.04;31.97;100011.56;5114528;28;20353;-70
2021/06/11 15:29:06;;;;;;;4.80;2.42;;;;;;;27.00;32.01;100008.56;5115705;27;20456;-70
2021/06/11 15:31:32;;;;;;;4.90;2.90;;;;;;;27.08;32.34;100009.03;5115605;27;27405;-72
2021/06/11 15:33:57;;;;;;;6.75;2.53;;;;;;;27.17;32.19;100010.91;5113711;28;29801;-73
2021/06/11 15:36:23;;;;;;;4.10;2.90;;;;;;;27.15;32.38;100007.63;5114798;27;33433;-73
2021/06/11 15:38:48;;;;;;;4.43;2.28;;;;;;;27.10;32.28;100009.59;5115731;27;20028;-73
2021/06/11 15:41:16;;;;;;;6.70;2.63;;;;;;;26.92;31.97;100006.44;5114784;27;36006;-72
2021/06/11 15:43:42;;;;;;;4.03;2.60;;;;;;;26.74;32.16;100012.59;5114460;28;20032;-74
2021/06/11 15:46:07;;;;;;;4.68;2.70;;;;;;;26.64;32.42;99997.00;5115121;27;20028;-75
2021/06/11 15:48:33;;;;;;;2.95;2.30;;;;;;;26.50;32.70;100002.28;5115426;27;20392;-72
2021/06/11 15:50:58;;;;;;;7.05;2.58;;;;;;;26.31;32.50;100000.22;5113547;28;31349;-73
2021/06/11 15:53:24;;;;;;;8.77;2.72;;;;;;;26.11;32.70;100001.09;5115703;27;20086;-75
2021/06/11 15:55:50;;;;;;;5.30;2.67;;;;;;;25.99;33.06;99997.84;5113564;28;20325;-73
2021/06/11 15:58:17;;;;;;;5.80;2.78;;;;;;;25.88;33.58;100002.50;5113639;28;20436;-72
2021/06/11 16:00:46;;;;;;;5.90;2.70;;;;;;;25.81;33.56;100002.00;5113868;28;20561;-73
2021/06/11 16:03:11;;;;;;;3.72;2.72;;;;;;;25.75;33.39;100003.06;5115433;27;20043;-70
2021/06/11 16:05:37;;;;;;;3.88;2.60;;;;;;;25.76;34.13;100002.00;5114562;27;37309;-72
2021/06/11 16:08:02;;;;;;;9.43;2.88;;;;;;;25.98;34.34;100002.47;5113736;28;23780;-71
2021/06/11 16:10:28;;;;;;;4.75;2.85;;;;;;;26.18;34.35;99996.16;5115295;27;20030;-72
2021/06/11 16:12:56;;;;;;;3.60;2.45;;;;;;;26.25;34.17;100001.31;5113484;28;22323;-72
2021/06/11 16:15:21;;;;;;;3.25;2.47;;;;;;;26.39;34.74;99993.31;5115269;27;20089;-73
2021/06/11 16:17:46;;;;;;;6.28;2.78;;;;;;;26.69;34.87;99997.00;5095828;28;31654;-72
2021/06/11 16:20:12;;;;;;;4.90;2.95;;;;;;;27.00;34.64;99997.63;5115205;27;20031;-72
2021/06/11 16:22:37;;;;;;;6.07;2.80;;;;;;;27.15;34.08;99995.88;5115245;27;20024;-71
2021/06/11 16:25:03;;;;;;;7.13;2.67;;;;;;;27.01;33.40;100002.00;5115550;27;20389;-75
2021/06/11 16:27:29;;;;;;;4.07;2.60;;;;;;;26.92;33.83;99992.75;5114781;27;20095;-77